createdAt,value
2023-04-15T00:00:59.772Z,31.53
2023-04-15T00:03:27.346Z,33.30
2023-04-15T00:05:54.396Z,33.03
2023-04-15T00:08:21.182Z,30.77
2023-04-15T00:10:48.188Z,31.43
2023-04-15T00:13:15.414Z,28.47
2023-04-15T00:15:43.167Z,29.80
2023-04-15T00:18:10.292Z,26.97
2023-04-15T00:20:37.588Z,27.33
2023-04-15T00:23:05.599Z,28.97
2023-04-15T00:25:33.003Z,29.83
2023-04-15T00:28:00.141Z,31.03
2023-04-15T00:30:26.999Z,31.30
2023-04-15T00:32:53.918Z,27.90
2023-04-15T00:35:23.955Z,28.50
2023-04-15T00:37:51.480Z,29.10
2023-04-15T00:40:20.941Z,27.30
2023-04-15T00:42:48.048Z,26.93
2023-04-15T00:45:15.618Z,30.70
2023-04-15T00:47:44.079Z,28.60
2023-04-15T00:50:12.627Z,29.60
2023-04-15T00:52:40.771Z,29.77
2023-04-15T00:55:08.751Z,29.00
2023-04-15T00:57:36.276Z,32.07
2023-04-15T01:00:04.753Z,31.43
2023-04-15T01:02:32.894Z,32.43
2023-04-15T01:05:02.668Z,29.13
2023-04-15T01:07:29.570Z,28.50
2023-04-15T01:09:56.873Z,28.13
2023-04-15T01:12:26.248Z,28.47
2023-04-15T01:14:55.230Z,28.13
2023-04-15T01:17:22.118Z,29.67
2023-04-15T01:19:49.047Z,28.33
2023-04-15T01:22:16.198Z,28.03
2023-04-15T01:24:52.181Z,29.77
2023-04-15T01:27:20.674Z,30.10
2023-04-15T01:29:48.203Z,29.83
2023-04-15T01:32:15.611Z,30.53
2023-04-15T01:34:42.413Z,31.40
2023-04-15T01:37:09.235Z,31.80
2023-04-15T01:39:36.080Z,31.20
2023-04-15T01:42:03.398Z,30.23
2023-04-15T01:44:30.153Z,30.10
2023-04-15T01:46:57.096Z,29.20
2023-04-15T01:49:24.154Z,29.27
2023-04-15T01:51:50.958Z,29.37
2023-04-15T01:54:17.903Z,29.30
2023-04-15T01:56:44.859Z,27.60
2023-04-15T01:59:11.715Z,29.30
2023-04-15T02:01:38.852Z,29.43
2023-04-15T02:04:05.865Z,31.03
2023-04-15T02:06:33.305Z,32.53
2023-04-15T02:09:00.300Z,30.80
2023-04-15T02:11:27.286Z,33.10
2023-04-15T02:13:54.091Z,32.63
2023-04-15T02:16:21.372Z,30.87
2023-04-15T02:18:48.262Z,30.20
2023-04-15T02:21:15.095Z,29.50
2023-04-15T02:23:41.967Z,30.27
2023-04-15T02:26:08.737Z,30.47
2023-04-15T02:28:35.882Z,27.63
2023-04-15T02:31:06.629Z,30.13
2023-04-15T02:33:33.671Z,31.30
2023-04-15T02:36:01.081Z,30.10
2023-04-15T02:38:28.681Z,29.80
2023-04-15T02:40:55.767Z,31.17
2023-04-15T02:43:23.070Z,29.00
2023-04-15T02:45:52.313Z,32.03
2023-04-15T02:48:20.693Z,31.47
2023-04-15T02:50:48.181Z,29.93
2023-04-15T02:53:17.419Z,29.30
2023-04-15T02:55:44.361Z,31.23
2023-04-15T02:58:11.113Z,30.53
2023-04-15T03:00:37.960Z,30.93
2023-04-15T03:03:06.596Z,29.87
2023-04-15T03:05:33.818Z,31.67
2023-04-15T03:08:03.510Z,31.77
2023-04-15T03:10:30.330Z,29.57
2023-04-15T03:12:57.256Z,33.20
2023-04-15T03:15:24.559Z,31.50
2023-04-15T03:17:53.296Z,33.40
2023-04-15T03:20:20.427Z,34.10
2023-04-15T03:22:48.513Z,29.93
2023-04-15T03:25:15.702Z,31.43
2023-04-15T03:27:43.293Z,32.07
2023-04-15T03:30:12.310Z,33.17
2023-04-15T03:32:40.408Z,29.67
2023-04-15T03:35:09.676Z,31.17
2023-04-15T03:37:36.860Z,32.53
2023-04-15T03:40:03.737Z,34.00
2023-04-15T03:42:30.580Z,33.27
2023-04-15T03:44:57.376Z,30.00
2023-04-15T03:47:24.191Z,30.43
2023-04-15T03:49:51.035Z,30.23
2023-04-15T03:52:17.820Z,28.80
2023-04-15T03:54:44.551Z,26.60
2023-04-15T03:57:11.548Z,26.43
2023-04-15T03:59:38.312Z,26.63
2023-04-15T04:02:05.123Z,27.53
2023-04-15T04:04:32.054Z,28.73
2023-04-15T04:06:58.855Z,27.80
2023-04-15T04:09:25.898Z,28.47
2023-04-15T04:11:52.660Z,31.13
2023-04-15T04:14:19.504Z,28.87
2023-04-15T04:16:46.528Z,30.13
2023-04-15T04:19:14.771Z,29.50
2023-04-15T04:21:41.570Z,28.70
2023-04-15T04:24:08.362Z,28.47
2023-04-15T04:26:35.137Z,29.73
2023-04-15T04:29:02.140Z,31.47
2023-04-15T04:31:29.198Z,30.83
2023-04-15T04:33:56.047Z,31.73
2023-04-15T04:36:22.923Z,30.90
2023-04-15T04:38:49.653Z,28.70
2023-04-15T04:41:16.387Z,30.43
2023-04-15T04:43:43.199Z,29.77
2023-04-15T04:46:10.475Z,31.53
2023-04-15T04:48:37.364Z,32.93
2023-04-15T04:51:04.560Z,30.13
2023-04-15T04:53:31.676Z,27.83
2023-04-15T04:55:58.538Z,28.50
2023-04-15T04:58:25.810Z,27.70
2023-04-15T05:00:52.982Z,29.20
2023-04-15T05:03:19.961Z,28.93
2023-04-15T05:05:46.905Z,30.07
2023-04-15T05:08:13.784Z,28.93
2023-04-15T05:10:40.589Z,29.33
2023-04-15T05:13:07.420Z,31.20
2023-04-15T05:15:36.821Z,31.43
2023-04-15T05:18:03.718Z,32.90
2023-04-15T05:20:30.627Z,31.23
2023-04-15T05:22:57.393Z,31.77
2023-04-15T05:25:24.192Z,34.50
2023-04-15T05:27:51.561Z,34.70
2023-04-15T05:30:18.464Z,35.37
2023-04-15T05:32:45.807Z,35.80
2023-04-15T05:35:15.185Z,37.83
2023-04-15T05:37:42.033Z,36.90
2023-04-15T05:40:10.611Z,38.43
2023-04-15T05:42:37.587Z,37.83
2023-04-15T05:45:09.031Z,38.20
2023-04-15T05:47:37.596Z,35.77
2023-04-15T05:50:05.183Z,38.57
2023-04-15T05:52:32.314Z,37.47
2023-04-15T05:54:59.139Z,38.07
2023-04-15T05:57:25.933Z,38.80
2023-04-15T05:59:52.900Z,37.30
2023-04-15T06:02:19.943Z,36.17
2023-04-15T06:04:47.399Z,35.13
2023-04-15T06:07:14.481Z,35.83
2023-04-15T06:09:41.446Z,37.10
2023-04-15T06:12:12.302Z,37.93
2023-04-15T06:14:40.609Z,38.43
2023-04-15T06:17:07.860Z,40.07
2023-04-15T06:19:35.052Z,41.13
2023-04-15T06:22:02.057Z,37.00
2023-04-15T06:24:29.327Z,36.77
2023-04-15T06:26:56.198Z,37.17
2023-04-15T06:29:23.009Z,37.03
2023-04-15T06:31:50.022Z,36.60
2023-04-15T06:34:17.061Z,39.50
2023-04-15T06:36:43.918Z,38.90
2023-04-15T06:39:10.928Z,37.27
2023-04-15T06:41:37.790Z,36.80
2023-04-15T06:44:04.807Z,35.30
2023-04-15T06:46:31.754Z,34.03
2023-04-15T06:48:58.653Z,33.10
2023-04-15T06:51:26.738Z,35.20
2023-04-15T06:53:54.064Z,34.70
2023-04-15T06:56:20.859Z,35.03
2023-04-15T06:58:47.935Z,37.07
2023-04-15T07:01:14.734Z,38.07
2023-04-15T07:03:42.029Z,35.13
2023-04-15T07:06:09.426Z,38.03
2023-04-15T07:08:36.766Z,33.20
2023-04-15T07:11:03.775Z,35.97
2023-04-15T07:13:32.368Z,33.03
2023-04-15T07:15:59.310Z,31.40
2023-04-15T07:18:26.124Z,35.87
2023-04-15T07:20:52.964Z,32.90
2023-04-15T07:23:19.753Z,35.53
2023-04-15T07:25:47.336Z,35.67
2023-04-15T07:28:14.218Z,31.60
2023-04-15T07:30:41.577Z,29.00
2023-04-15T07:33:08.451Z,30.83
2023-04-15T07:35:35.289Z,31.40
2023-04-15T07:38:02.403Z,30.97
2023-04-15T07:40:29.289Z,29.37
2023-04-15T07:42:59.211Z,30.30
2023-04-15T07:45:26.111Z,29.03
2023-04-15T07:47:52.909Z,30.40
2023-04-15T07:50:19.797Z,26.30
2023-04-15T07:52:47.003Z,25.53
2023-04-15T07:55:13.858Z,27.40
2023-04-15T07:57:40.763Z,28.43
2023-04-15T08:00:08.307Z,24.90
2023-04-15T08:02:41.653Z,23.23
2023-04-15T08:05:09.621Z,22.40
2023-04-15T08:07:38.310Z,24.07
2023-04-15T08:10:05.794Z,21.30
2023-04-15T08:12:32.907Z,22.50
2023-04-15T08:14:59.976Z,23.13
2023-04-15T08:17:26.997Z,24.00
2023-04-15T08:19:54.130Z,23.10
2023-04-15T08:22:21.969Z,22.93
2023-04-15T08:24:49.237Z,23.03
2023-04-15T08:27:15.980Z,21.70
2023-04-15T08:29:42.779Z,21.50
2023-04-15T08:32:09.642Z,20.47
2023-04-15T08:34:36.774Z,20.77
2023-04-15T08:37:03.557Z,21.27
2023-04-15T08:39:30.334Z,20.13
2023-04-15T08:42:02.571Z,20.47
2023-04-15T08:44:36.839Z,21.03
2023-04-15T08:47:07.786Z,19.33
2023-04-15T08:49:39.746Z,19.83
2023-04-15T08:52:07.413Z,19.73
2023-04-15T08:54:35.286Z,20.10
2023-04-15T08:57:02.577Z,20.63
2023-04-15T08:59:31.074Z,19.97
2023-04-15T09:01:58.765Z,20.30
2023-04-15T09:04:25.902Z,19.83
2023-04-15T09:06:52.732Z,20.43
2023-04-15T09:09:19.693Z,19.97
2023-04-15T09:11:46.564Z,20.33
2023-04-15T09:14:13.547Z,20.07
2023-04-15T09:17:01.869Z,21.10
2023-04-15T09:19:29.752Z,21.43
2023-04-15T09:21:59.282Z,21.57
2023-04-15T09:24:34.312Z,21.17
2023-04-15T09:27:01.110Z,21.90
2023-04-15T09:29:28.132Z,20.50
2023-04-15T09:31:54.953Z,21.20
2023-04-15T09:34:22.523Z,21.40
2023-04-15T09:36:56.995Z,21.33
2023-04-15T09:39:23.912Z,20.37
2023-04-15T09:42:09.743Z,19.97
2023-04-15T09:44:37.470Z,19.37
2023-04-15T09:47:04.361Z,20.27
2023-04-15T09:49:31.229Z,19.27
2023-04-15T09:52:05.667Z,19.63
2023-04-15T09:54:35.463Z,19.17
2023-04-15T09:57:13.205Z,18.93
2023-04-15T09:59:40.085Z,19.37
2023-04-15T10:02:10.049Z,19.87
2023-04-15T10:04:40.745Z,21.07
2023-04-15T10:07:09.613Z,19.33
2023-04-15T10:09:37.248Z,19.23
2023-04-15T10:12:05.425Z,19.60
2023-04-15T10:14:34.787Z,20.03
2023-04-15T10:17:04.156Z,20.37
2023-04-15T10:19:33.182Z,19.13
2023-04-15T10:22:00.582Z,19.93
2023-04-15T10:24:27.878Z,19.87
2023-04-15T10:26:55.404Z,18.17
2023-04-15T10:29:23.629Z,17.67
2023-04-15T10:31:51.040Z,18.53
2023-04-15T10:34:19.226Z,18.57
2023-04-15T10:36:47.285Z,18.50
2023-04-15T10:39:33.207Z,20.10
2023-04-15T10:42:17.788Z,18.47
2023-04-15T10:44:52.286Z,19.50
2023-04-15T10:47:21.309Z,19.23
2023-04-15T10:49:49.974Z,18.80
2023-04-15T10:52:18.876Z,18.13
2023-04-15T10:54:45.884Z,19.07
2023-04-15T10:57:22.227Z,19.33
2023-04-15T11:00:12.093Z,18.80
2023-04-15T11:02:40.548Z,18.53
2023-04-15T11:05:08.192Z,19.23
2023-04-15T11:07:47.177Z,18.90
2023-04-15T11:10:13.951Z,19.30
2023-04-15T11:12:42.137Z,18.77
2023-04-15T11:15:32.813Z,19.17
2023-04-15T11:18:09.449Z,18.97
2023-04-15T11:20:37.331Z,18.70
2023-04-15T11:23:14.572Z,18.10
2023-04-15T11:25:43.550Z,18.03
2023-04-15T11:28:11.965Z,18.23
2023-04-15T11:30:40.064Z,17.77
2023-04-15T11:33:09.286Z,18.40
2023-04-15T11:35:36.680Z,18.33
2023-04-15T11:38:14.335Z,18.93
2023-04-15T11:40:45.340Z,18.47
2023-04-15T11:43:22.052Z,18.00
2023-04-15T11:45:59.959Z,17.93
2023-04-15T11:48:32.275Z,18.83
2023-04-15T11:51:01.435Z,17.37
2023-04-15T11:53:43.414Z,17.03
2023-04-15T11:56:16.793Z,17.27
2023-04-15T11:58:44.726Z,16.77
2023-04-15T12:01:11.921Z,17.27
2023-04-15T12:03:43.933Z,18.10
2023-04-15T12:06:21.220Z,18.50
2023-04-15T12:08:55.193Z,17.40
2023-04-15T12:11:31.223Z,18.60
2023-04-15T12:14:10.739Z,17.60
2023-04-15T12:16:48.669Z,17.93
2023-04-15T12:19:22.671Z,18.60
2023-04-15T12:21:50.128Z,17.40
2023-04-15T12:24:21.711Z,17.90
2023-04-15T12:26:57.723Z,17.70
2023-04-15T12:29:29.311Z,18.13
2023-04-15T12:32:06.389Z,16.47
2023-04-15T12:34:35.756Z,18.27
2023-04-15T12:37:04.360Z,18.27
2023-04-15T12:39:42.857Z,17.00
2023-04-15T12:42:10.797Z,18.47
2023-04-15T12:44:38.929Z,17.17
2023-04-15T12:47:06.854Z,17.63
2023-04-15T12:49:33.902Z,18.23
2023-04-15T12:52:02.101Z,17.13
2023-04-15T12:54:30.800Z,17.53
2023-04-15T12:56:58.595Z,17.63
2023-04-15T12:59:25.657Z,16.97
2023-04-15T13:01:53.560Z,16.87
2023-04-15T13:04:21.390Z,16.97
2023-04-15T13:06:48.500Z,17.60
2023-04-15T13:09:15.786Z,16.87
2023-04-15T13:11:43.208Z,17.23
2023-04-15T13:14:13.666Z,16.43
2023-04-15T13:16:41.047Z,16.50
2023-04-15T13:19:07.986Z,16.60
2023-04-15T13:21:36.226Z,16.40
2023-04-15T13:24:04.915Z,16.93
2023-04-15T13:26:32.900Z,16.60
2023-04-15T13:29:01.951Z,17.00
2023-04-15T13:31:28.937Z,17.53
2023-04-15T13:33:57.550Z,17.93
2023-04-15T13:36:24.632Z,18.67
2023-04-15T13:38:51.918Z,17.60
2023-04-15T13:41:20.012Z,18.00
2023-04-15T13:43:47.299Z,19.37
2023-04-15T13:46:14.678Z,18.33
2023-04-15T13:48:41.835Z,18.60
2023-04-15T13:51:08.799Z,18.70
2023-04-15T13:53:38.398Z,18.60
2023-04-15T13:56:09.374Z,17.53
2023-04-15T13:58:37.582Z,18.13
2023-04-15T14:01:06.293Z,18.83
2023-04-15T14:03:36.077Z,18.33
2023-04-15T14:06:03.515Z,19.70
2023-04-15T14:08:31.027Z,18.73
2023-04-15T14:10:57.929Z,18.10
2023-04-15T14:13:25.009Z,17.17
2023-04-15T14:15:51.960Z,17.30
2023-04-15T14:18:18.787Z,17.90
2023-04-15T14:20:45.636Z,17.83
2023-04-15T14:23:12.481Z,18.13
2023-04-15T14:25:39.415Z,18.17
2023-04-15T14:28:06.273Z,18.47
2023-04-15T14:30:33.325Z,19.57
2023-04-15T14:33:00.449Z,18.63
2023-04-15T14:35:28.035Z,19.87
2023-04-15T14:37:55.647Z,20.13
2023-04-15T14:40:22.672Z,19.53
2023-04-15T14:42:49.610Z,21.37
2023-04-15T14:45:17.586Z,21.00
2023-04-15T14:47:44.600Z,19.87
2023-04-15T14:50:11.484Z,21.03
2023-04-15T14:52:41.220Z,20.53
2023-04-15T14:55:12.538Z,19.33
2023-04-15T14:57:40.971Z,18.67
2023-04-15T15:00:09.969Z,18.83
2023-04-15T15:02:40.349Z,19.37
2023-04-15T15:05:08.433Z,18.87
2023-04-15T15:07:37.109Z,19.33
2023-04-15T15:10:04.728Z,20.33
2023-04-15T15:12:32.188Z,20.57
2023-04-15T15:14:59.219Z,19.00
2023-04-15T15:17:26.255Z,19.97
2023-04-15T15:19:53.090Z,19.40
2023-04-15T15:22:21.465Z,19.83
2023-04-15T15:24:48.428Z,20.90
2023-04-15T15:27:15.289Z,19.67
2023-04-15T15:29:42.134Z,19.50
2023-04-15T15:32:08.944Z,19.60
2023-04-15T15:34:36.000Z,19.93
2023-04-15T15:37:03.017Z,20.70
2023-04-15T15:39:29.808Z,21.33
2023-04-15T15:41:56.620Z,20.97
2023-04-15T15:44:23.535Z,23.33
2023-04-15T15:46:51.161Z,24.83
2023-04-15T15:49:18.256Z,26.37
2023-04-15T15:51:45.871Z,24.07
2023-04-15T15:54:13.036Z,25.07
2023-04-15T15:56:39.865Z,23.50
2023-04-15T15:59:06.973Z,24.00
2023-04-15T16:01:34.031Z,23.83
2023-04-15T16:04:01.267Z,24.07
2023-04-15T16:06:28.726Z,22.53
2023-04-15T16:08:55.598Z,22.60
2023-04-15T16:11:23.011Z,23.87
2023-04-15T16:13:49.872Z,25.23
2023-04-15T16:16:16.680Z,24.57
2023-04-15T16:18:43.584Z,24.90
2023-04-15T16:21:10.496Z,25.33
2023-04-15T16:23:38.229Z,24.83
2023-04-15T16:26:05.211Z,26.27
2023-04-15T16:28:32.162Z,24.77
2023-04-15T16:30:59.407Z,25.67
2023-04-15T16:33:27.012Z,25.27
2023-04-15T16:35:53.956Z,23.27
2023-04-15T16:38:21.093Z,23.10
2023-04-15T16:40:47.910Z,23.87
2023-04-15T16:43:14.719Z,23.03
2023-04-15T16:45:41.637Z,22.87
2023-04-15T16:48:08.558Z,22.90
2023-04-15T16:50:36.660Z,25.03
2023-04-15T16:53:03.533Z,22.97
2023-04-15T16:55:30.376Z,23.27
2023-04-15T16:58:02.246Z,22.70
2023-04-15T17:00:36.587Z,24.37
2023-04-15T17:03:05.932Z,24.23
2023-04-15T17:05:33.309Z,24.43
2023-04-15T17:08:00.384Z,25.37
2023-04-15T17:10:27.876Z,22.53
2023-04-15T17:12:56.931Z,23.47
2023-04-15T17:15:23.938Z,24.67
2023-04-15T17:17:51.032Z,24.20
2023-04-15T17:20:18.051Z,23.53
2023-04-15T17:22:45.907Z,23.70
2023-04-15T17:25:14.075Z,24.37
2023-04-15T17:27:41.505Z,23.90
2023-04-15T17:30:08.882Z,24.57
2023-04-15T17:32:36.031Z,23.27
2023-04-15T17:35:05.939Z,24.60
2023-04-15T17:37:34.058Z,25.33
2023-04-15T17:40:00.904Z,24.60
2023-04-15T17:42:28.209Z,23.60
2023-04-15T17:44:54.966Z,28.53
2023-04-15T17:47:21.750Z,27.43
2023-04-15T17:49:48.555Z,25.93
2023-04-15T17:52:15.354Z,27.87
2023-04-15T17:54:42.185Z,26.57
2023-04-15T17:57:09.687Z,25.00
2023-04-15T17:59:36.744Z,26.27
2023-04-15T18:02:03.784Z,26.77
2023-04-15T18:04:30.741Z,26.33
2023-04-15T18:06:57.826Z,25.87
2023-04-15T18:09:24.636Z,25.63
2023-04-15T18:11:51.427Z,25.63
2023-04-15T18:14:33.037Z,27.10
2023-04-15T18:17:02.365Z,24.67
2023-04-15T18:19:30.609Z,24.40
2023-04-15T18:21:59.879Z,25.70
2023-04-15T18:24:26.788Z,23.83
2023-04-15T18:26:54.001Z,24.70
2023-04-15T18:29:20.866Z,24.70
2023-04-15T18:31:47.803Z,22.93
2023-04-15T18:34:14.698Z,23.53
2023-04-15T18:36:41.651Z,23.77
2023-04-15T18:39:08.711Z,22.63
2023-04-15T18:41:35.552Z,25.13
2023-04-15T18:44:02.409Z,23.20
2023-04-15T18:46:29.493Z,25.23
2023-04-15T18:48:56.369Z,24.27
2023-04-15T18:51:23.381Z,24.03
2023-04-15T18:53:50.480Z,24.73
2023-04-15T18:56:17.424Z,24.83
2023-04-15T18:59:08.813Z,25.27
2023-04-15T19:01:32.059Z,24.80
2023-04-15T19:03:59.653Z,26.53
2023-04-15T19:06:28.594Z,28.00
2023-04-15T19:08:57.849Z,26.57
2023-04-15T19:11:25.333Z,26.80
2023-04-15T19:13:53.221Z,27.73
2023-04-15T19:16:20.532Z,28.23
2023-04-15T19:18:47.356Z,28.27
2023-04-15T19:21:14.736Z,27.27
2023-04-15T19:23:42.982Z,29.53
2023-04-15T19:26:10.348Z,29.17
2023-04-15T19:28:37.168Z,30.67
2023-04-15T19:31:04.109Z,29.57
2023-04-15T19:33:31.611Z,29.43
2023-04-15T19:36:04.215Z,30.33
2023-04-15T19:38:31.553Z,28.53
2023-04-15T19:40:59.210Z,29.77
2023-04-15T19:43:26.351Z,28.97
2023-04-15T19:45:54.757Z,30.27
2023-04-15T19:48:24.358Z,28.43
2023-04-15T19:50:51.639Z,31.10
2023-04-15T19:53:18.585Z,32.80
2023-04-15T19:55:45.769Z,31.83
2023-04-15T19:58:12.745Z,32.13
2023-04-15T20:00:39.646Z,30.60
2023-04-15T20:03:06.596Z,31.67
2023-04-15T20:05:33.712Z,31.93
2023-04-15T20:08:01.408Z,30.70
2023-04-15T20:10:28.353Z,33.63
2023-04-15T20:12:55.361Z,31.37
2023-04-15T20:15:23.721Z,29.57
2023-04-15T20:17:50.928Z,31.60
2023-04-15T20:20:17.827Z,31.50
2023-04-15T20:22:44.981Z,31.57
2023-04-15T20:25:11.814Z,29.27
2023-04-15T20:27:38.711Z,30.50
2023-04-15T20:30:06.532Z,31.77
2023-04-15T20:32:35.888Z,30.13
2023-04-15T20:35:04.892Z,32.27
2023-04-15T20:37:33.658Z,31.70
2023-04-15T20:40:01.668Z,31.53
2023-04-15T20:42:34.031Z,29.80
2023-04-15T20:45:01.241Z,30.37
2023-04-15T20:47:28.277Z,32.37
2023-04-15T20:49:55.421Z,33.40
2023-04-15T20:52:22.296Z,32.77
2023-04-15T20:54:49.155Z,32.43
2023-04-15T20:57:16.794Z,32.53
2023-04-15T20:59:43.846Z,33.10
2023-04-15T21:02:11.706Z,32.17
2023-04-15T21:04:38.817Z,33.03
2023-04-15T21:07:05.724Z,33.40
2023-04-15T21:09:32.510Z,33.27
2023-04-15T21:12:01.746Z,32.67
2023-04-15T21:14:29.183Z,32.87
2023-04-15T21:16:58.211Z,32.83
2023-04-15T21:19:25.027Z,32.73
2023-04-15T21:21:52.577Z,32.20
2023-04-15T21:24:19.353Z,31.90
2023-04-15T21:26:46.153Z,32.70
2023-04-15T21:29:13.329Z,32.20
2023-04-15T21:31:40.717Z,31.80
2023-04-15T21:34:08.219Z,32.00
2023-04-15T21:36:35.356Z,32.20
2023-04-15T21:39:02.324Z,31.30
2023-04-15T21:41:29.497Z,34.27
2023-04-15T21:43:56.287Z,31.97
2023-04-15T21:46:25.621Z,31.63
2023-04-15T21:48:59.505Z,32.30
2023-04-15T21:51:26.700Z,31.73
2023-04-15T21:53:53.478Z,31.20
2023-04-15T21:56:22.626Z,32.17
2023-04-15T21:58:49.500Z,33.43
2023-04-15T22:01:16.924Z,34.30
2023-04-15T22:03:43.953Z,31.43
2023-04-15T22:06:11.204Z,32.20
2023-04-15T22:08:44.860Z,33.63
2023-04-15T22:11:26.349Z,32.53
2023-04-15T22:13:57.441Z,31.93
2023-04-15T22:16:27.707Z,33.50
2023-04-15T22:18:56.208Z,34.67
2023-04-15T22:21:23.639Z,33.87
2023-04-15T22:23:51.342Z,33.07
2023-04-15T22:26:18.175Z,33.20
2023-04-15T22:28:45.386Z,33.33
2023-04-15T22:31:12.509Z,36.20
2023-04-15T22:33:39.255Z,32.97
2023-04-15T22:36:06.302Z,32.70
2023-04-15T22:38:33.208Z,33.40
2023-04-15T22:41:00.239Z,36.13
2023-04-15T22:43:27.462Z,34.73
2023-04-15T22:45:54.919Z,36.10
2023-04-15T22:48:22.252Z,36.87
2023-04-15T22:50:49.474Z,34.30
2023-04-15T22:53:20.154Z,34.93
2023-04-15T22:55:47.732Z,35.47
2023-04-15T22:58:15.829Z,38.13
2023-04-15T23:00:42.772Z,36.50
2023-04-15T23:03:10.027Z,38.17
2023-04-15T23:05:37.230Z,36.43
2023-04-15T23:08:04.218Z,37.43
2023-04-15T23:10:31.076Z,36.70
2023-04-15T23:12:57.926Z,36.57
2023-04-15T23:15:25.294Z,36.43
2023-04-15T23:17:52.133Z,35.73
2023-04-15T23:20:18.952Z,35.70
2023-04-15T23:22:45.773Z,36.03
2023-04-15T23:25:12.549Z,34.90
2023-04-15T23:27:39.300Z,33.93
2023-04-15T23:30:07.030Z,36.97
2023-04-15T23:32:33.913Z,35.60
2023-04-15T23:35:01.025Z,35.90
2023-04-15T23:37:29.716Z,35.90
2023-04-15T23:39:56.533Z,37.70
2023-04-15T23:42:24.177Z,34.73
2023-04-15T23:44:51.236Z,35.10
2023-04-15T23:47:18.153Z,36.27
2023-04-15T23:49:45.011Z,33.87
2023-04-15T23:52:12.103Z,35.20
2023-04-15T23:54:39.415Z,35.37
2023-04-15T23:57:06.298Z,35.07
2023-04-15T23:59:33.132Z,33.37
